Templar Park, Iowa
Current Conditions -  °F | °C
As of 8:54 AM on Wednesday 22 Oct 2014 (Local Time) from KMJQ Reporting Station
Clear Clear  
Wind Chill: 40°   Ceiling: Unl
Heat Index: 46°   Visibility: 10mi
Dew Point: 37°   Wind: 16mph
Humidity: 71%   Direction: 150°SSE
Pressure: 30.1"   Gusts: 22mph
Location:  43.4265°N, 95.1547°W
Report Text: KMJQ 221354Z AUTO 15014G19KT 10SM CLR 08/03 A3010 RMK AO2
Loading
Personal Weather Stations






























Interactive Weather Map
Tropical Storm Tracking
New forecast layout! Learn more

10-Day Weather Forecast

Advertisements
Track Severe Weather on mobile